»·PEaware :: N3021C KHND-KIFP

N3021C :: KHND-KIFP

FLIGHT INFORMATION

Flight Status: Arrived
Operator: Privately registered:
United States
More flights under this callsign
Pilot: Mark B. (9455)
Aircraft: CESSNA 172 SKYHAWK
(C172)
More flights by this aircraft type
Origin: KHND Henderson
United States
Destination: KIFP Laughlin/Bullhead Intl
United States
More flights between these airports :: More routes between these airports
Route: LAS V538 GFS EED
File this flight plan on PilotEdge
Remarks:
Altitude:
(Current/Filed)
9,000ft
Speed:
(Current/Filed)
115kts
Departed: 10-Jul-16 06:35 PM
Arrived: 10-Jul-16 07:34 PM
Distance/Time
Traveled:
56nm/0:59
Distance/Time
To Go:
Arrived

Flight Plot

Page will automatically refresh every two minutes.


Map Options




Map Legend


Flown Route
Filed Route
Departure Airport
Arrival Airport
Navaid (VOR, NDB)
Fix

Horizontal Profiles

Position Reports

Time Latitude Longitude Heading Altitude Ground
Speed
10-Jul-16 18:08 35.977757 -115.137959 181 2414ft 0kts
10-Jul-16 18:09 35.977757 -115.137959 181 2414ft 0kts
10-Jul-16 18:10 35.977757 -115.137959 181 2414ft 0kts
10-Jul-16 18:11 35.977757 -115.137959 181 2414ft 0kts
10-Jul-16 18:12 35.977757 -115.137959 181 2414ft 0kts
10-Jul-16 18:13 35.977757 -115.137959 181 2414ft 0kts
10-Jul-16 18:13 35.977757 -115.137959 181 2414ft 0kts
10-Jul-16 18:14 35.977757 -115.137959 181 2414ft 0kts
10-Jul-16 18:15 35.977757 -115.137959 181 2414ft 0kts
10-Jul-16 18:16 35.977757 -115.137959 181 2414ft 0kts
10-Jul-16 18:17 35.977757 -115.137959 181 2414ft 0kts
10-Jul-16 18:18 35.977757 -115.137959 181 2414ft 0kts
10-Jul-16 18:19 35.977757 -115.137959 181 2414ft 0kts
10-Jul-16 18:20 35.977757 -115.137959 181 2414ft 0kts
10-Jul-16 18:21 35.977329 -115.137079 75 2416ft 12kts
10-Jul-16 18:22 35.980775 -115.136184 72 2404ft 0kts
10-Jul-16 18:23 35.980775 -115.136184 72 2404ft 0kts
10-Jul-16 18:24 35.980775 -115.136184 72 2404ft 0kts
10-Jul-16 18:25 35.980775 -115.136184 72 2404ft 0kts
10-Jul-16 18:26 35.980775 -115.136184 72 2404ft 0kts
10-Jul-16 18:27 35.980775 -115.136184 72 2404ft 0kts
10-Jul-16 18:28 35.980775 -115.136184 72 2404ft 0kts
10-Jul-16 18:29 35.980775 -115.136184 72 2404ft 0kts
10-Jul-16 18:30 35.971502 -115.135502 180 2687ft 73kts
10-Jul-16 18:31 35.950937 -115.138726 189 3694ft 75kts
10-Jul-16 18:32 35.929837 -115.143391 190 4670ft 76kts
10-Jul-16 18:33 35.908896 -115.148278 186 5582ft 77kts
10-Jul-16 18:34 35.888050 -115.154898 180 6438ft 79kts
10-Jul-16 18:35 35.866045 -115.155046 182 7268ft 79kts
10-Jul-16 18:36 35.844010 -115.159014 184 8052ft 80kts
10-Jul-16 18:37 35.821559 -115.161623 185 8794ft 82kts
10-Jul-16 18:38 35.795272 -115.164182 183 9058ft 111kts
10-Jul-16 18:39 35.762893 -115.166612 181 9010ft 118kts
10-Jul-16 18:40 35.730071 -115.166210 179 9018ft 117kts
10-Jul-16 18:41 35.697538 -115.167879 178 8950ft 121kts
10-Jul-16 18:42 35.665267 -115.169850 180 9043ft 117kts
10-Jul-16 18:43 35.632655 -115.174677 182 9019ft 117kts
10-Jul-16 18:44 35.599653 -115.176564 182 9004ft 116kts
10-Jul-16 18:45 35.567259 -115.179072 176 9034ft 117kts
10-Jul-16 18:46 35.534734 -115.180790 181 9030ft 119kts
10-Jul-16 18:47 35.501399 -115.180261 184 8965ft 119kts
10-Jul-16 18:48 35.468641 -115.183106 175 8995ft 115kts
10-Jul-16 18:49 35.437407 -115.188385 213 8962ft 119kts
10-Jul-16 18:50 35.407926 -115.184228 139 8969ft 118kts
10-Jul-16 18:52 35.397296 -115.147175 94 8925ft 121kts
10-Jul-16 18:53 35.396771 -115.105814 83 8759ft 124kts
10-Jul-16 18:54 35.398348 -115.066137 80 8907ft 114kts
10-Jul-16 18:55 35.403711 -115.027907 74 9004ft 116kts
10-Jul-16 18:56 35.413609 -114.990201 68 9064ft 115kts
10-Jul-16 18:57 35.421104 -114.951038 86 9023ft 119kts
10-Jul-16 18:58 35.423351 -114.910122 80 8963ft 120kts
10-Jul-16 18:59 35.430318 -114.872385 77 9005ft 118kts
10-Jul-16 19:00 35.436970 -114.832842 71 8993ft 121kts
10-Jul-16 19:01 35.447653 -114.794454 74 8732ft 117kts
10-Jul-16 19:02 35.456589 -114.753349 77 8091ft 127kts
10-Jul-16 19:03 35.464059 -114.711151 75 7187ft 125kts
10-Jul-16 19:04 35.471657 -114.676767 67 7021ft 89kts
10-Jul-16 19:05 35.492042 -114.673069 337 6907ft 92kts
10-Jul-16 19:06 35.516084 -114.684860 340 6684ft 92kts
10-Jul-16 19:07 35.540026 -114.696615 337 6544ft 92kts
10-Jul-16 19:08 35.561261 -114.708286 337 6600ft 82kts
10-Jul-16 19:09 35.582068 -114.721039 339 6614ft 84kts
10-Jul-16 19:10 35.577338 -114.736850 153 6613ft 84kts
10-Jul-16 19:11 35.565261 -114.712527 129 6629ft 85kts
10-Jul-16 19:12 35.543582 -114.700730 157 6629ft 86kts
10-Jul-16 19:13 35.521887 -114.688042 154 6593ft 92kts
10-Jul-16 19:14 35.498746 -114.675345 158 6568ft 91kts
10-Jul-16 19:15 35.476085 -114.662293 161 6499ft 89kts
10-Jul-16 19:16 35.453569 -114.648447 160 6081ft 91kts
10-Jul-16 19:16 35.435306 -114.638755 156 5630ft 91kts
10-Jul-16 19:17 35.411777 -114.627991 161 4951ft 90kts
10-Jul-16 19:18 35.389445 -114.613025 151 4175ft 93kts
10-Jul-16 19:19 35.365880 -114.600338 152 3461ft 88kts
10-Jul-16 19:20 35.345805 -114.588559 153 3256ft 73kts
10-Jul-16 19:21 35.327074 -114.579229 159 3400ft 74kts
10-Jul-16 19:22 35.306974 -114.571358 179 3370ft 78kts
10-Jul-16 19:23 35.284447 -114.569573 178 2958ft 83kts
10-Jul-16 19:24 35.261661 -114.569335 182 2446ft 83kts
10-Jul-16 19:25 35.238039 -114.567954 175 1891ft 84kts
10-Jul-16 19:26 35.215395 -114.564769 176 1782ft 81kts
10-Jul-16 19:27 35.192781 -114.563011 177 1488ft 83kts
10-Jul-16 19:28 35.174238 -114.560973 175 1003ft 61kts
10-Jul-16 19:29 35.161868 -114.559676 101 635ft 12kts
10-Jul-16 19:30 35.162461 -114.558873 34 645ft 0kts

Navigation Log

Ident Type
Flight plan parsing failed, navigation log unavailable